Time;durP1;ratioP1;P1;durP2;ratioP2;P2;SDS_P1;SDS_P2;PMS_P1;PMS_P2;Temp;Humidity;BMP_temperature;BMP_pressure;BME280_temperature;BME280_humidity;BME280_pressure;Samples;Min_cycle;Max_cycle;Signal;HPM_P1;HPM_P2
2023/01/06 00:01:27;;;;;;;2.47;1.25;;;;;;;8.54;100.00;98222.56;5076188;28;20477;-82
2023/01/06 00:03:57;;;;;;;1.45;1.00;;;;;;;8.29;100.00;98244.03;5077831;28;20024;-81
2023/01/06 00:06:26;;;;;;;7.72;1.70;;;;;;;8.59;100.00;98245.50;5077998;28;20025;-82
2023/01/06 00:08:54;;;;;;;1.88;1.40;;;;;;;8.48;100.00;98231.19;5082827;28;20466;-81
2023/01/06 00:11:20;;;;;;;4.72;1.85;;;;;;;8.75;100.00;98239.06;5077858;28;20489;-81
2023/01/06 00:13:46;;;;;;;2.63;1.83;;;;;;;8.38;100.00;98227.16;5081944;28;20033;-81
2023/01/06 00:16:14;;;;;;;5.13;1.60;;;;;;;8.29;100.00;98233.59;5079324;28;20379;-81
2023/01/06 00:18:40;;;;;;;4.38;1.75;;;;;;;8.30;100.00;98229.97;5074186;28;20421;-81
2023/01/06 00:21:07;;;;;;;4.45;1.92;;;;;;;8.64;100.00;98236.03;5080106;28;20381;-80
2023/01/06 00:23:34;;;;;;;3.22;2.22;;;;;;;8.41;100.00;98233.78;5080893;28;20028;-81
2023/01/06 00:26:00;;;;;;;3.80;1.95;;;;;;;8.24;100.00;98242.03;5083172;28;20039;-81
2023/01/06 00:28:32;;;;;;;2.80;1.67;;;;;;;8.37;100.00;98246.47;5074642;28;20039;-81
2023/01/06 00:31:16;;;;;;;2.00;1.60;;;;;;;8.69;100.00;98238.03;5081218;28;21396;-81
2023/01/06 00:33:44;;;;;;;2.10;1.90;;;;;;;8.86;100.00;98251.53;5080125;28;20044;-82
2023/01/06 00:36:12;;;;;;;3.00;2.13;;;;;;;8.83;100.00;98225.75;5083535;28;20020;-80
2023/01/06 00:38:38;;;;;;;6.70;2.33;;;;;;;8.77;100.00;98229.19;5082430;28;20038;-81
2023/01/06 00:42:02;;;;;;;2.10;1.90;;;;;;;8.67;100.00;98243.50;5077849;28;20463;-80
2023/01/06 00:43:58;;;;;;;4.20;2.20;;;;;;;8.77;100.00;98260.59;5081390;28;20032;-81
2023/01/06 00:46:25;;;;;;;6.90;2.58;;;;;;;8.33;100.00;98240.03;5079342;28;20162;-81
2023/01/06 00:48:51;;;;;;;4.90;2.60;;;;;;;8.74;100.00;98250.53;5079457;28;20020;-80
2023/01/06 00:51:20;;;;;;;4.72;2.83;;;;;;;8.93;100.00;98248.91;5080928;28;20040;-80
2023/01/06 00:53:45;;;;;;;10.73;3.38;;;;;;;8.85;100.00;98237.63;5078023;28;20394;-81
2023/01/06 00:56:11;;;;;;;10.57;3.90;;;;;;;8.73;100.00;98217.53;5080089;28;20131;-81
2023/01/06 00:58:36;;;;;;;7.55;3.72;;;;;;;8.71;100.00;98242.09;5081977;28;20542;-81
2023/01/06 01:01:05;;;;;;;6.85;3.50;;;;;;;8.94;100.00;98240.84;5080790;28;20047;-81
2023/01/06 01:03:34;;;;;;;6.95;3.17;;;;;;;8.65;100.00;98237.66;5077244;28;20028;-80
2023/01/06 01:06:05;;;;;;;10.90;3.63;;;;;;;8.35;100.00;98235.41;5077533;28;20028;-81
2023/01/06 01:08:31;;;;;;;10.95;3.28;;;;;;;8.73;100.00;98241.06;5083810;28;20024;-81
2023/01/06 01:11:05;;;;;;;9.77;2.97;;;;;;;8.54;100.00;98241.66;5077893;28;20077;-80
2023/01/06 01:13:30;;;;;;;7.35;2.83;;;;;;;8.51;100.00;98241.28;5076878;28;20110;-80
2023/01/06 01:15:56;;;;;;;7.20;2.30;;;;;;;8.39;100.00;98238.44;5079255;28;20517;-80
2023/01/06 01:18:21;;;;;;;6.03;2.08;;;;;;;8.66;100.00;98243.69;5079069;28;20511;-80
2023/01/06 01:20:47;;;;;;;8.57;2.40;;;;;;;8.24;100.00;98239.41;5076315;28;20504;-80
2023/01/06 01:23:13;;;;;;;8.52;2.20;;;;;;;8.18;100.00;98252.47;5078659;28;20055;-81
2023/01/06 01:25:39;;;;;;;7.07;2.10;;;;;;;8.18;100.00;98227.13;5085487;28;20028;-81
2023/01/06 01:28:05;;;;;;;10.55;2.38;;;;;;;8.24;100.00;98230.75;5079685;28;20040;-81
2023/01/06 01:30:31;;;;;;;8.23;1.98;;;;;;;8.67;100.00;98245.28;5078329;28;20082;-81
2023/01/06 01:32:58;;;;;;;8.82;1.92;;;;;;;8.36;100.00;98254.53;5080273;28;20107;-80
2023/01/06 01:35:24;;;;;;;12.00;2.17;;;;;;;8.54;100.00;98253.94;5079383;28;20066;-79
2023/01/06 01:37:49;;;;;;;5.15;1.60;;;;;;;8.71;100.00;98262.19;5080028;28;20056;-80
2023/01/06 01:40:15;;;;;;;6.95;1.92;;;;;;;8.00;100.00;98277.34;5078521;28;20035;-79
2023/01/06 01:42:41;;;;;;;8.90;2.00;;;;;;;8.10;100.00;98269.94;5078811;28;20033;-80
2023/01/06 01:45:24;;;;;;;7.70;2.13;;;;;;;8.21;100.00;98284.25;5076076;28;20051;-80
2023/01/06 01:47:59;;;;;;;9.43;1.98;;;;;;;8.54;100.00;98273.03;5082248;28;20058;-80
2023/01/06 01:50:35;;;;;;;7.63;1.95;;;;;;;8.00;100.00;98256.44;5079309;28;20032;-80
2023/01/06 01:53:05;;;;;;;11.45;2.38;;;;;;;8.18;100.00;98276.00;5079906;28;20466;-80
2023/01/06 01:55:33;;;;;;;5.65;1.73;;;;;;;8.32;100.00;98259.34;5080813;28;20020;-80
2023/01/06 01:58:05;;;;;;;14.38;2.45;;;;;;;8.04;100.00;98278.56;5084780;28;20059;-81
2023/01/06 02:00:30;;;;;;;6.10;2.88;;;;;;;8.12;100.00;98265.31;5079425;28;20046;-80
2023/01/06 02:02:57;;;;;;;5.90;1.70;;;;;;;7.88;100.00;98268.47;5077647;28;20028;-80
2023/01/06 02:05:26;;;;;;;10.48;2.00;;;;;;;8.10;100.00;98290.03;5084532;28;20131;-80
2023/01/06 02:07:53;;;;;;;9.98;2.08;;;;;;;7.99;100.00;98265.28;5080910;28;20024;-79
2023/01/06 02:10:21;;;;;;;10.05;2.20;;;;;;;8.23;100.00;98281.41;5086878;28;20475;-82
2023/01/06 02:12:53;;;;;;;6.97;2.05;;;;;;;7.85;100.00;98275.69;5080140;28;20405;-81
2023/01/06 02:15:23;;;;;;;11.82;1.80;;;;;;;8.01;100.00;98289.41;5080252;28;20059;-80
2023/01/06 02:17:54;;;;;;;12.95;1.90;;;;;;;8.14;100.00;98273.78;5080139;28;20051;-79
2023/01/06 02:20:44;;;;;;;11.13;2.60;;;;;;;8.10;100.00;98280.41;5078612;28;20111;-82
2023/01/06 02:23:22;;;;;;;11.05;2.00;;;;;;;7.98;100.00;98274.13;5084188;28;20417;-81
2023/01/06 02:26:26;;;;;;;18.35;2.70;;;;;;;8.23;100.00;98281.41;5084084;28;20641;-80
2023/01/06 02:29:13;;;;;;;15.32;2.72;;;;;;;8.24;100.00;98283.03;5077216;28;20509;-80
2023/01/06 02:32:00;;;;;;;9.85;2.53;;;;;;;7.91;100.00;98283.75;5084589;28;20031;-80
2023/01/06 02:34:32;;;;;;;12.57;2.10;;;;;;;7.69;100.00;98297.72;5082331;28;20043;-79
2023/01/06 02:37:10;;;;;;;15.00;2.28;;;;;;;8.16;100.00;98284.03;5081419;28;20028;-81
2023/01/06 02:39:42;;;;;;;13.88;2.45;;;;;;;7.82;100.00;98298.81;5082152;28;20043;-81
2023/01/06 02:42:44;;;;;;;20.07;2.90;;;;;;;7.97;100.00;98320.38;5080407;28;20077;-81
2023/01/06 02:45:22;;;;;;;13.50;2.35;;;;;;;8.04;100.00;98319.59;5081778;28;20024;-82
2023/01/06 02:48:09;;;;;;;8.93;2.13;;;;;;;7.71;100.00;98321.84;5081663;28;20307;-82
2023/01/06 02:50:59;;;;;;;7.18;1.92;;;;;;;7.95;100.00;98295.44;5081422;28;20122;-81
2023/01/06 02:53:36;;;;;;;20.45;2.63;;;;;;;7.83;100.00;98298.59;5082590;28;20046;-81
2023/01/06 02:56:03;;;;;;;16.17;2.83;;;;;;;7.76;100.00;98318.66;5081558;28;20374;-81
2023/01/06 02:58:52;;;;;;;12.15;2.63;;;;;;;7.77;100.00;98320.28;5078467;28;20561;-81
2023/01/06 03:01:24;;;;;;;12.75;2.20;;;;;;;7.49;100.00;98304.66;5076938;28;20041;-82
2023/01/06 03:03:52;;;;;;;15.98;2.55;;;;;;;7.75;100.00;98342.34;5082416;28;20028;-81
2023/01/06 03:06:23;;;;;;;13.30;2.20;;;;;;;7.83;100.00;98335.16;5081256;28;20033;-81
2023/01/06 03:08:52;;;;;;;20.23;2.58;;;;;;;7.62;100.00;98322.22;5079333;28;20044;-81
2023/01/06 03:11:18;;;;;;;8.98;2.30;;;;;;;7.59;100.00;98315.59;5081372;28;20021;-82
2023/01/06 03:13:49;;;;;;;14.00;2.67;;;;;;;7.76;100.00;98329.13;5079973;28;20113;-82
2023/01/06 03:16:15;;;;;;;9.38;2.80;;;;;;;7.64;100.00;98352.38;5083908;28;20438;-83
2023/01/06 03:18:43;;;;;;;12.30;2.70;;;;;;;7.85;100.00;98335.00;5079683;28;20033;-83
2023/01/06 03:21:14;;;;;;;15.32;2.47;;;;;;;7.82;100.00;98325.72;5076607;28;20414;-83
2023/01/06 03:23:41;;;;;;;12.23;2.80;;;;;;;7.89;100.00;98336.22;5079702;28;20039;-82
2023/01/06 03:26:08;;;;;;;13.88;2.95;;;;;;;7.90;100.00;98342.25;5082271;28;20027;-82
2023/01/06 03:28:34;;;;;;;13.85;3.22;;;;;;;7.84;100.00;98331.56;5079365;28;20028;-81
2023/01/06 03:31:10;;;;;;;15.10;3.83;;;;;;;7.90;100.00;98350.09;5080091;28;21958;-83
2023/01/06 03:34:02;;;;;;;11.35;2.95;;;;;;;7.81;100.00;98358.06;5083305;28;20365;-82
2023/01/06 03:36:45;;;;;;;10.90;3.00;;;;;;;7.84;100.00;98336.78;5077498;28;20050;-81
2023/01/06 03:39:16;;;;;;;14.77;2.35;;;;;;;7.61;100.00;98338.88;5058690;28;20044;-80
2023/01/06 03:44:58;;;;;;;12.45;2.28;;;;;;;7.72;100.00;98359.25;5079933;28;20035;-82
2023/01/06 03:47:41;;;;;;;15.40;2.55;;;;;;;7.64;100.00;98347.16;5079809;28;20123;-81
2023/01/06 03:50:16;;;;;;;12.20;3.27;;;;;;;8.13;100.00;98352.38;5066014;28;20028;-81
2023/01/06 03:52:50;;;;;;;9.35;2.00;;;;;;;7.78;100.00;98342.78;5079302;28;20269;-82
2023/01/06 03:55:19;;;;;;;15.90;3.10;;;;;;;7.75;100.00;98356.25;5076228;28;20407;-82
2023/01/06 03:57:49;;;;;;;13.85;2.38;;;;;;;8.13;100.00;98353.19;5077284;28;20474;-80
2023/01/06 04:00:26;;;;;;;12.90;1.95;;;;;;;7.82;100.00;98344.00;5039454;28;1249088;-80
2023/01/06 04:02:51;;;;;;;13.57;2.72;;;;;;;7.79;100.00;98333.94;5085067;28;20041;-80
2023/01/06 04:05:24;;;;;;;12.45;2.55;;;;;;;7.78;100.00;98355.84;5061852;28;20032;-81
2023/01/06 04:07:50;;;;;;;12.13;2.50;;;;;;;7.94;100.00;98377.44;5077654;28;20043;-81
2023/01/06 04:10:17;;;;;;;11.30;2.30;;;;;;;7.92;100.00;98369.00;5079605;28;20120;-80
2023/01/06 04:12:43;;;;;;;15.10;3.17;;;;;;;7.81;100.00;98367.72;5079666;28;20024;-80
2023/01/06 04:15:12;;;;;;;12.32;3.13;;;;;;;8.13;100.00;98384.56;5078537;28;20043;-80
2023/01/06 04:17:40;;;;;;;12.48;2.45;;;;;;;8.17;100.00;98382.38;5063788;28;20020;-81
2023/01/06 04:20:07;;;;;;;14.48;2.40;;;;;;;8.04;100.00;98401.41;5081318;28;20076;-81
2023/01/06 04:22:34;;;;;;;9.45;2.45;;;;;;;8.19;100.00;98396.06;5078285;28;20051;-80
2023/01/06 04:25:03;;;;;;;20.33;2.95;;;;;;;7.96;100.00;98396.34;5082430;28;20029;-80
2023/01/06 04:27:28;;;;;;;12.77;2.10;;;;;;;8.02;100.00;98400.78;5079263;28;20033;-79
2023/01/06 04:29:54;;;;;;;12.05;2.53;;;;;;;8.13;100.00;98392.41;5078139;28;20477;-81
2023/01/06 04:32:20;;;;;;;13.18;2.97;;;;;;;7.94;100.00;98386.06;5064274;28;20044;-81
2023/01/06 04:34:45;;;;;;;14.35;2.80;;;;;;;7.96;100.00;98409.41;5077287;28;20129;-81
2023/01/06 04:37:11;;;;;;;13.02;4.05;;;;;;;8.25;100.00;98404.91;5081984;28;20027;-81
2023/01/06 04:39:39;;;;;;;14.35;3.03;;;;;;;7.78;100.00;98399.47;5082078;28;20177;-81
2023/01/06 04:42:05;;;;;;;17.80;3.08;;;;;;;8.12;100.00;98411.72;5080478;28;20028;-81
2023/01/06 04:44:31;;;;;;;12.35;2.25;;;;;;;7.80;100.00;98402.69;5061241;28;20032;-81
2023/01/06 04:46:57;;;;;;;16.17;3.50;;;;;;;7.87;100.00;98408.75;5079374;28;20020;-82
2023/01/06 04:49:22;;;;;;;15.05;2.95;;;;;;;7.84;100.00;98404.72;5077156;28;20058;-81
2023/01/06 04:51:48;;;;;;;13.77;2.92;;;;;;;7.78;100.00;98399.47;5078421;28;20129;-81
2023/01/06 04:54:13;;;;;;;15.77;2.60;;;;;;;7.74;100.00;98401.66;5077445;28;20029;-81
2023/01/06 04:56:39;;;;;;;20.85;2.88;;;;;;;7.88;100.00;98405.16;5083160;28;20032;-82
2023/01/06 04:59:05;;;;;;;13.57;2.67;;;;;;;7.57;100.00;98414.22;5064031;28;20020;-80
2023/01/06 05:01:30;;;;;;;18.13;2.97;;;;;;;7.64;100.00;98422.06;5079887;28;20036;-82
2023/01/06 05:03:56;;;;;;;18.88;3.38;;;;;;;7.36;100.00;98381.09;5084957;28;21336;-81
2023/01/06 05:06:21;;;;;;;16.98;2.60;;;;;;;7.55;100.00;98379.63;5057845;28;20490;-82
2023/01/06 05:08:48;;;;;;;14.57;2.72;;;;;;;7.66;100.00;98412.22;5075918;28;20112;-82
2023/01/06 05:11:20;;;;;;;16.08;3.35;;;;;;;7.72;100.00;98417.50;5080378;28;20111;-83
2023/01/06 05:13:47;;;;;;;16.10;2.97;;;;;;;7.49;100.00;98407.31;5076415;28;20542;-81
2023/01/06 05:16:18;;;;;;;16.30;3.55;;;;;;;7.72;100.00;98407.06;5077840;28;20033;-81
2023/01/06 05:18:44;;;;;;;14.80;2.80;;;;;;;7.53;100.00;98398.09;5066489;28;20039;-82
2023/01/06 05:21:10;;;;;;;14.48;2.95;;;;;;;7.74;100.00;98417.34;5079553;28;20421;-82
2023/01/06 05:23:37;;;;;;;10.02;2.10;;;;;;;7.49;100.00;98394.28;5082198;28;20032;-82
2023/01/06 05:26:04;;;;;;;15.15;2.92;;;;;;;7.54;100.00;98414.56;5073519;28;21461;-83
2023/01/06 05:28:30;;;;;;;14.98;3.22;;;;;;;7.77;100.00;98418.75;5081866;28;20525;-81
2023/01/06 05:31:03;;;;;;;10.55;2.60;;;;;;;7.49;100.00;98394.28;5062351;28;20111;-82
2023/01/06 05:33:30;;;;;;;16.25;2.75;;;;;;;7.48;100.00;98395.28;5082209;28;20414;-82
2023/01/06 05:36:06;;;;;;;21.77;2.58;;;;;;;7.73;100.00;98413.09;5067577;28;20107;-83
2023/01/06 05:38:33;;;;;;;20.17;2.53;;;;;;;7.39;100.00;98412.06;5085635;28;20039;-83
2023/01/06 05:40:58;;;;;;;13.88;3.25;;;;;;;7.58;100.00;98406.16;5084056;28;20389;-82
2023/01/06 05:43:25;;;;;;;16.20;2.63;;;;;;;7.65;100.00;98415.84;5088205;28;20521;-82
2023/01/06 05:45:51;;;;;;;15.32;2.70;;;;;;;7.24;100.00;98401.69;5087406;28;20055;-82
2023/01/06 05:48:17;;;;;;;5.45;2.20;;;;;;;7.77;100.00;98413.53;5081451;28;20475;-80
2023/01/06 05:50:43;;;;;;;15.75;2.63;;;;;;;7.49;100.00;98412.56;5085454;28;20032;-81
2023/01/06 05:53:08;;;;;;;14.65;3.58;;;;;;;7.57;100.00;98420.22;5086873;28;20028;-81
2023/01/06 05:55:34;;;;;;;16.23;3.00;;;;;;;7.16;100.00;98415.69;5080975;28;20364;-83
2023/01/06 05:57:59;;;;;;;16.25;3.60;;;;;;;7.37;100.00;98406.22;5083243;28;20028;-83
2023/01/06 06:00:25;;;;;;;14.23;2.67;;;;;;;7.46;100.00;98415.50;5085969;28;20489;-80
2023/01/06 06:02:50;;;;;;;16.02;2.55;;;;;;;7.51;100.00;98421.00;5084949;28;20069;-81
2023/01/06 06:05:16;;;;;;;21.55;3.45;;;;;;;7.22;100.00;98359.31;5082142;28;20513;-81
2023/01/06 06:07:42;;;;;;;16.15;4.38;;;;;;;7.58;100.00;98424.44;5075862;28;20028;-81
2023/01/06 06:10:08;;;;;;;19.80;3.35;;;;;;;7.58;100.00;98431.50;5080165;28;20390;-81
2023/01/06 06:12:34;;;;;;;16.50;3.13;;;;;;;7.46;100.00;98422.56;5084279;28;20028;-82
2023/01/06 06:15:00;;;;;;;13.63;2.47;;;;;;;7.65;100.00;98421.06;5086202;28;20066;-81
2023/01/06 06:17:25;;;;;;;22.70;3.15;;;;;;;7.35;100.00;98431.72;5083118;28;20457;-82
2023/01/06 06:19:51;;;;;;;17.08;3.05;;;;;;;7.39;100.00;98422.50;5087209;28;20043;-80
2023/01/06 06:22:16;;;;;;;23.27;3.22;;;;;;;7.21;100.00;98410.72;5083283;28;20056;-80
2023/01/06 06:24:42;;;;;;;18.13;3.25;;;;;;;7.60;100.00;98402.56;5083386;28;20386;-80
2023/01/06 06:27:07;;;;;;;20.15;2.95;;;;;;;7.44;100.00;98425.34;5082187;28;20075;-82
2023/01/06 06:29:33;;;;;;;20.33;3.47;;;;;;;7.35;100.00;98431.72;5085917;28;20028;-80
2023/01/06 06:31:59;;;;;;;22.75;4.38;;;;;;;7.51;100.00;98421.00;5083580;28;20470;-82
2023/01/06 06:34:26;;;;;;;16.38;4.53;;;;;;;7.57;100.00;98412.38;5082485;28;20050;-81
2023/01/06 06:36:51;;;;;;;15.55;3.20;;;;;;;7.58;100.00;98415.81;5084401;28;20024;-81
2023/01/06 06:39:17;;;;;;;20.95;3.85;;;;;;;7.48;100.00;98415.34;5060796;28;20037;-83
2023/01/06 06:41:43;;;;;;;22.85;3.50;;;;;;;7.46;100.00;98405.06;5087734;28;20458;-81
2023/01/06 06:44:09;;;;;;;20.63;4.05;;;;;;;7.45;100.00;98400.06;5087260;28;20073;-82
2023/01/06 06:46:34;;;;;;;15.95;3.15;;;;;;;7.71;100.00;98396.81;5083016;28;20078;-81
2023/01/06 06:49:00;;;;;;;15.82;3.40;;;;;;;7.31;100.00;98399.94;5076363;28;20081;-81
2023/01/06 06:51:26;;;;;;;20.83;3.65;;;;;;;7.39;100.00;98419.88;5084197;28;20036;-81
2023/01/06 06:53:51;;;;;;;20.38;2.70;;;;;;;7.54;100.00;98410.16;5083447;28;20028;-81
2023/01/06 06:56:18;;;;;;;15.80;2.63;;;;;;;7.47;100.00;98418.94;5080377;28;20028;-82
2023/01/06 06:58:44;;;;;;;20.10;3.20;;;;;;;7.47;100.00;98424.16;5081440;28;20036;-79
2023/01/06 07:01:13;;;;;;;24.45;3.85;;;;;;;7.27;100.00;98399.53;5085845;28;20060;-82
2023/01/06 07:03:39;;;;;;;20.63;3.38;;;;;;;7.46;100.00;98430.38;5083524;28;20382;-80
2023/01/06 07:06:07;;;;;;;15.05;3.10;;;;;;;7.68;100.00;98421.50;5083864;28;20103;-80
2023/01/06 07:08:33;;;;;;;16.85;3.45;;;;;;;7.58;100.00;98415.81;5084866;28;20470;-81
2023/01/06 07:10:59;;;;;;;16.55;4.10;;;;;;;7.26;100.00;98418.78;5079746;28;20036;-81
2023/01/06 07:13:26;;;;;;;16.75;2.90;;;;;;;7.58;100.00;98426.28;5082992;28;20032;-82
2023/01/06 07:15:52;;;;;;;19.60;3.63;;;;;;;7.47;100.00;98430.22;5080255;28;20463;-82
2023/01/06 07:18:17;;;;;;;19.85;4.63;;;;;;;7.56;100.00;98405.56;5081647;28;20043;-82
2023/01/06 07:20:49;;;;;;;17.38;3.10;;;;;;;7.40;100.00;98409.28;5083204;28;20389;-82
2023/01/06 07:23:16;;;;;;;21.17;4.28;;;;;;;7.13;100.00;98418.69;5081938;28;20040;-82
2023/01/06 07:25:41;;;;;;;22.15;3.50;;;;;;;7.54;100.00;98425.84;5081644;28;20089;-82
2023/01/06 07:28:08;;;;;;;22.50;4.13;;;;;;;7.34;100.00;98432.72;5084957;28;20025;-82
2023/01/06 07:30:35;;;;;;;22.67;3.00;;;;;;;7.22;100.00;98403.69;5079919;28;20031;-82
2023/01/06 07:33:01;;;;;;;17.73;3.20;;;;;;;7.74;100.00;98425.16;5079245;28;20063;-81
2023/01/06 07:35:27;;;;;;;22.52;3.97;;;;;;;7.48;100.00;98433.63;5076567;28;20033;-84
2023/01/06 07:37:53;;;;;;;21.65;3.85;;;;;;;7.29;100.00;98428.88;5084164;28;20028;-82
2023/01/06 07:40:20;;;;;;;19.75;3.33;;;;;;;7.45;100.00;98447.06;5077659;28;20482;-83
2023/01/06 07:42:48;;;;;;;23.67;3.17;;;;;;;7.53;100.00;98408.56;5083973;28;20031;-83
2023/01/06 07:45:15;;;;;;;22.95;3.10;;;;;;;7.61;100.00;98420.66;5084077;28;20042;-84
2023/01/06 07:47:40;;;;;;;23.00;4.13;;;;;;;7.11;100.00;98405.81;5085745;28;20063;-82
2023/01/06 07:50:06;;;;;;;11.68;2.67;;;;;;;7.41;100.00;98425.72;5083971;28;20028;-83
2023/01/06 07:52:32;;;;;;;18.30;3.20;;;;;;;7.21;100.00;98418.53;5081801;28;20039;-82
2023/01/06 07:54:58;;;;;;;23.77;3.47;;;;;;;7.57;100.00;98442.94;5088074;28;20100;-84
2023/01/06 07:57:28;;;;;;;18.02;2.80;;;;;;;7.50;100.00;98445.50;5081301;28;20021;-84
2023/01/06 07:59:54;;;;;;;14.13;2.78;;;;;;;7.65;100.00;98421.06;5082511;28;20489;-83
2023/01/06 08:02:21;;;;;;;17.92;3.08;;;;;;;7.36;100.00;98402.00;5066273;28;20032;-82
2023/01/06 08:04:47;;;;;;;21.85;3.13;;;;;;;7.49;100.00;98420.38;5085403;28;20089;-85
2023/01/06 08:07:14;;;;;;;20.05;3.20;;;;;;;7.49;100.00;98407.31;5085006;28;20114;-84
2023/01/06 08:09:39;;;;;;;17.67;3.78;;;;;;;7.43;100.00;98439.41;5081907;28;20035;-84
2023/01/06 08:12:06;;;;;;;10.90;2.67;;;;;;;7.38;100.00;98431.34;5080216;28;20498;-85
2023/01/06 08:14:31;;;;;;;21.55;3.63;;;;;;;7.48;100.00;98431.00;5080337;28;20028;-85
2023/01/06 08:16:57;;;;;;;24.05;3.60;;;;;;;7.70;100.00;98445.63;5082901;28;20025;-84
2023/01/06 08:19:23;;;;;;;21.83;3.53;;;;;;;7.68;100.00;98446.84;5085561;28;20032;-89
2023/01/06 08:21:49;;;;;;;16.15;2.97;;;;;;;7.62;100.00;98440.56;5083603;28;20111;-86
2023/01/06 08:24:14;;;;;;;23.85;3.60;;;;;;;7.43;100.00;98444.63;5076912;28;20386;-90
2023/01/06 08:26:41;;;;;;;22.98;3.83;;;;;;;7.37;100.00;98403.59;5088227;28;20039;-88
2023/01/06 08:29:07;;;;;;;27.20;3.55;;;;;;;7.88;100.00;98446.16;5082855;28;20393;-91
2023/01/06 08:31:34;;;;;;;25.15;5.00;;;;;;;8.12;100.00;98442.25;5059554;28;20039;-85
2023/01/06 08:33:59;;;;;;;17.90;3.25;;;;;;;8.33;100.00;98440.56;5083925;28;20032;-88
2023/01/06 08:36:28;;;;;;;21.83;3.80;;;;;;;8.33;100.00;98474.53;5079735;28;20027;-88
2023/01/06 08:38:53;;;;;;;18.00;3.80;;;;;;;8.14;100.00;98467.22;5079898;28;20033;-90
2023/01/06 08:41:19;;;;;;;15.85;3.90;;;;;;;8.29;100.00;98450.59;5068246;28;20040;-90
2023/01/06 08:43:46;;;;;;;23.77;5.20;;;;;;;8.28;100.00;98475.94;5083876;28;20032;-90
2023/01/06 08:46:16;;;;;;;20.42;4.70;;;;;;;8.65;100.00;98483.59;5086196;28;20032;-90
2023/01/06 08:48:45;;;;;;;19.38;3.65;;;;;;;8.55;100.00;98470.06;5067825;28;20120;-89
2023/01/06 08:51:14;;;;;;;25.70;5.50;;;;;;;8.46;100.00;98473.81;5082069;28;20029;-90
2023/01/06 08:53:40;;;;;;;17.05;3.90;;;;;;;8.44;100.00;98479.22;5062610;28;20044;-92
2023/01/06 08:56:17;;;;;;;16.48;3.90;;;;;;;8.54;100.00;98481.53;5062267;28;20036;-92
2023/01/06 08:58:44;;;;;;;24.67;5.00;;;;;;;8.25;100.00;98478.94;5059950;28;20111;-83
2023/01/06 09:01:18;;;;;;;18.55;4.57;;;;;;;8.48;100.00;98450.88;5075977;28;20126;-84
2023/01/06 09:03:44;;;;;;;21.13;4.07;;;;;;;8.35;100.00;98464.69;5079428;28;20031;-84
2023/01/06 09:06:10;;;;;;;19.10;4.43;;;;;;;8.26;100.00;98479.75;5084526;28;21171;-83
2023/01/06 09:08:36;;;;;;;19.45;4.05;;;;;;;7.96;100.00;98440.78;5065190;28;20032;-88
2023/01/06 09:11:06;;;;;;;27.73;4.70;;;;;;;8.24;100.00;98450.38;5083382;28;20028;-88
2023/01/06 09:13:32;;;;;;;16.65;4.45;;;;;;;8.23;100.00;98451.38;5085560;28;20031;-90
2023/01/06 09:15:58;;;;;;;21.60;4.95;;;;;;;7.93;100.00;98441.16;5084622;28;20024;-86
2023/01/06 09:18:24;;;;;;;19.65;4.80;;;;;;;8.31;100.00;98472.13;5088875;28;20481;-88
2023/01/06 09:20:51;;;;;;;13.40;4.43;;;;;;;7.76;100.00;98443.25;5064268;28;20037;-88
2023/01/06 09:23:19;;;;;;;18.83;4.55;;;;;;;7.78;100.00;98441.28;5082971;28;20039;-85
2023/01/06 09:25:45;;;;;;;21.15;4.63;;;;;;;8.17;100.00;98454.75;5087434;28;20369;-85
2023/01/06 09:28:10;;;;;;;21.23;5.15;;;;;;;8.20;100.00;98454.38;5082287;28;20028;-88
2023/01/06 09:30:38;;;;;;;26.73;5.93;;;;;;;8.05;100.00;98457.91;5084834;28;20032;-85
2023/01/06 09:33:03;;;;;;;20.20;5.22;;;;;;;8.15;100.00;98465.41;5087624;28;20027;-87
2023/01/06 09:35:29;;;;;;;23.05;5.38;;;;;;;8.10;100.00;98434.63;5082026;28;20028;-87
2023/01/06 09:37:54;;;;;;;16.85;4.32;;;;;;;8.19;100.00;98442.28;5086529;28;20033;-85
2023/01/06 09:40:29;;;;;;;22.45;5.43;;;;;;;8.15;100.00;98444.47;5066892;28;20441;-83
2023/01/06 09:43:01;;;;;;;20.38;4.30;;;;;;;8.60;100.00;98453.78;5080908;28;20021;-84
2023/01/06 09:45:50;;;;;;;18.03;4.80;;;;;;;8.32;100.00;98442.38;5085069;28;20082;-84
2023/01/06 09:48:28;;;;;;;15.90;3.70;;;;;;;8.44;100.00;98434.78;5078936;28;20464;-85
2023/01/06 09:51:02;;;;;;;20.63;4.95;;;;;;;8.34;100.00;98429.91;5064381;28;20482;-86
2023/01/06 09:53:33;;;;;;;22.15;5.10;;;;;;;8.23;100.00;98460.03;5085099;28;20069;-86
2023/01/06 09:56:02;;;;;;;14.90;4.35;;;;;;;8.30;100.00;98465.28;5083226;28;20111;-86
2023/01/06 09:58:53;;;;;;;24.20;4.65;;;;;;;8.47;100.00;98463.16;5083453;28;20032;-88
2023/01/06 10:01:29;;;;;;;19.13;4.30;;;;;;;8.48;100.00;98438.59;5082638;28;20537;-85
2023/01/06 10:03:56;;;;;;;15.50;3.60;;;;;;;8.36;100.00;98453.25;5088561;28;20033;-85
2023/01/06 10:06:28;;;;;;;17.88;4.22;;;;;;;8.21;100.00;98459.41;5083545;28;20032;-85
2023/01/06 10:09:03;;;;;;;22.55;4.20;;;;;;;8.63;100.00;98488.19;5080733;28;20048;-85
2023/01/06 10:11:50;;;;;;;13.40;3.83;;;;;;;8.74;100.00;98470.31;5085794;28;20060;-86
2023/01/06 10:14:53;;;;;;;16.83;3.45;;;;;;;8.79;100.00;98475.75;5081665;28;20025;-85
2023/01/06 10:17:37;;;;;;;20.23;3.30;;;;;;;8.68;100.00;98471.91;5083721;28;20054;-86
2023/01/06 10:20:34;;;;;;;27.20;3.97;;;;;;;8.90;100.00;98479.63;5080793;28;20382;-87
2023/01/06 10:23:18;;;;;;;19.40;3.42;;;;;;;8.83;100.00;98500.53;5083419;28;20020;-87
2023/01/06 10:25:52;;;;;;;;;;;;;;;9.39;100.00;98489.00;5075596;28;20550;-86
2023/01/06 10:28:29;;;;;;;11.80;2.65;;;;;;;8.95;100.00;98493.75;5065678;28;19998;-88
2023/01/06 10:31:09;;;;;;;14.43;3.58;;;;;;;9.08;100.00;98486.94;5066486;28;20029;-86
2023/01/06 10:33:40;;;;;;;12.00;3.35;;;;;;;8.95;100.00;98488.50;5080000;28;20028;-85
2023/01/06 10:36:15;;;;;;;19.88;3.50;;;;;;;9.06;100.00;98494.97;5080980;28;20035;-86
2023/01/06 10:38:49;;;;;;;25.65;3.28;;;;;;;8.98;100.00;98488.09;5082163;28;20074;-82
2023/01/06 10:41:31;;;;;;;24.75;3.78;;;;;;;8.92;100.00;98475.81;5078342;28;20028;-84
2023/01/06 10:43:58;;;;;;;13.07;3.05;;;;;;;9.26;100.00;98489.78;5079565;28;20389;-89
2023/01/06 10:46:37;;;;;;;18.38;3.33;;;;;;;9.12;100.00;98506.47;5082930;28;20116;-84
2023/01/06 10:49:07;;;;;;;19.92;4.30;;;;;;;8.99;100.00;98487.09;5082951;28;20025;-84
2023/01/06 10:51:38;;;;;;;14.52;2.90;;;;;;;9.19;100.00;98488.94;5084291;28;20047;-82
2023/01/06 10:54:12;;;;;;;17.05;3.53;;;;;;;8.90;100.00;98493.53;5062669;28;20429;-86
2023/01/06 10:56:42;;;;;;;17.75;3.42;;;;;;;9.25;100.00;98493.41;5078526;28;20363;-83
2023/01/06 10:59:13;;;;;;;15.38;3.05;;;;;;;9.18;100.00;98487.34;5083525;28;20036;-84
2023/01/06 11:01:54;;;;;;;13.55;2.95;;;;;;;9.42;100.00;98493.00;5085573;28;20132;-82
2023/01/06 11:04:20;;;;;;;14.45;3.60;;;;;;;9.40;100.00;98471.44;5078569;28;20092;-85
2023/01/06 11:07:00;;;;;;;12.98;3.00;;;;;;;9.42;100.00;98477.28;5063485;28;20386;-85
2023/01/06 11:09:43;;;;;;;13.57;3.83;;;;;;;9.06;100.00;98481.09;5077834;28;20032;-84
2023/01/06 11:12:11;;;;;;;;;;;;;;;9.45;100.00;98465.63;5078523;28;20029;-85
2023/01/06 11:14:39;;;;;;;11.60;3.65;;;;;;;9.29;100.00;98468.44;5082550;28;19919;-86
2023/01/06 11:17:12;;;;;;;13.27;3.53;;;;;;;8.96;100.00;98450.84;5082110;28;20016;-85
2023/01/06 11:19:41;;;;;;;10.02;2.83;;;;;;;9.48;100.00;98476.50;5080358;28;20174;-83
2023/01/06 11:22:29;;;;;;;15.60;3.50;;;;;;;8.97;100.00;98444.59;5081352;28;20032;-86
2023/01/06 11:24:55;;;;;;;16.67;3.45;;;;;;;9.13;100.00;98450.47;5081215;28;20530;-85
2023/01/06 11:27:20;;;;;;;15.70;4.68;;;;;;;9.15;100.00;98461.56;5077924;28;20115;-87
2023/01/06 11:29:47;;;;;;;15.40;2.80;;;;;;;9.38;100.00;98461.19;5080095;28;20118;-84
2023/01/06 11:32:21;;;;;;;10.57;2.63;;;;;;;9.49;100.00;98467.63;5083071;28;20028;-86
2023/01/06 11:34:56;;;;;;;15.63;3.60;;;;;;;9.55;100.00;98469.44;5077388;28;20031;-86
2023/01/06 11:37:38;;;;;;;14.13;3.38;;;;;;;9.77;100.00;98474.47;5080958;28;20021;-84
2023/01/06 11:40:21;;;;;;;18.25;3.28;;;;;;;10.12;100.00;98470.78;5075290;28;20028;-83
2023/01/06 11:42:53;;;;;;;18.73;3.55;;;;;;;9.97;100.00;98453.47;5084661;28;20032;-82